sensor_id;sensor_type;location;lat;lon;timestamp;pressure;altitude;pressure_sealevel;temperature;humidity
75420;BME280;63998;52.488;13.428;2023-02-22T00:00:38;101215.34;;;8.95;63.82
75420;BME280;63998;52.488;13.428;2023-02-22T00:03:16;101217.19;;;9.02;63.96
75420;BME280;63998;52.488;13.428;2023-02-22T00:05:43;101218.28;;;9.17;64.63
75420;BME280;63998;52.488;13.428;2023-02-22T00:08:12;101208.94;;;9.28;63.09
75420;BME280;63998;52.488;13.428;2023-02-22T00:10:40;101218.59;;;9.36;62.97
75420;BME280;63998;52.488;13.428;2023-02-22T00:13:07;101217.84;;;9.45;62.53
75420;BME280;63998;52.488;13.428;2023-02-22T00:15:34;101212.66;;;9.45;61.58
75420;BME280;63998;52.488;13.428;2023-02-22T00:18:02;101210.91;;;9.44;61.46
75420;BME280;63998;52.488;13.428;2023-02-22T00:20:28;101211.81;;;9.46;61.57
75420;BME280;63998;52.488;13.428;2023-02-22T00:22:56;101207.50;;;9.48;61.58
75420;BME280;63998;52.488;13.428;2023-02-22T00:25:24;101202.28;;;9.45;61.68
75420;BME280;63998;52.488;13.428;2023-02-22T00:27:50;101200.63;;;9.50;62.84
75420;BME280;63998;52.488;13.428;2023-02-22T00:30:22;101206.59;;;9.45;61.62
75420;BME280;63998;52.488;13.428;2023-02-22T00:32:51;101197.09;;;9.45;61.27
75420;BME280;63998;52.488;13.428;2023-02-22T00:35:19;101203.94;;;9.39;61.01
75420;BME280;63998;52.488;13.428;2023-02-22T00:37:54;101207.38;;;9.39;61.26
75420;BME280;63998;52.488;13.428;2023-02-22T00:40:22;101200.41;;;9.35;61.12
75420;BME280;63998;52.488;13.428;2023-02-22T00:42:48;101206.47;;;9.35;61.71
75420;BME280;63998;52.488;13.428;2023-02-22T00:45:16;101193.53;;;9.37;61.85
75420;BME280;63998;52.488;13.428;2023-02-22T00:47:41;101198.72;;;9.40;63.36
75420;BME280;63998;52.488;13.428;2023-02-22T00:50:12;101203.19;;;9.49;63.02
75420;BME280;63998;52.488;13.428;2023-02-22T00:52:38;101207.50;;;9.48;62.15
75420;BME280;63998;52.488;13.428;2023-02-22T00:55:05;101200.59;;;9.47;62.38
75420;BME280;63998;52.488;13.428;2023-02-22T00:57:34;101192.69;;;9.41;62.00
75420;BME280;63998;52.488;13.428;2023-02-22T01:00:04;101201.22;;;9.31;61.61
75420;BME280;63998;52.488;13.428;2023-02-22T01:02:39;101206.81;;;9.02;61.64
75420;BME280;63998;52.488;13.428;2023-02-22T01:05:11;101200.56;;;8.88;62.07
75420;BME280;63998;52.488;13.428;2023-02-22T01:07:38;101202.94;;;8.75;62.33
75420;BME280;63998;52.488;13.428;2023-02-22T01:10:04;101200.13;;;8.62;63.36
75420;BME280;63998;52.488;13.428;2023-02-22T01:12:30;101205.25;;;8.59;63.35
75420;BME280;63998;52.488;13.428;2023-02-22T01:14:59;101211.41;;;8.68;64.01
75420;BME280;63998;52.488;13.428;2023-02-22T01:17:25;101208.13;;;8.76;64.36
75420;BME280;63998;52.488;13.428;2023-02-22T01:19:54;101207.03;;;8.62;63.35
75420;BME280;63998;52.488;13.428;2023-02-22T01:22:24;101208.28;;;8.36;64.44
75420;BME280;63998;52.488;13.428;2023-02-22T01:24:50;101201.06;;;8.21;65.08
75420;BME280;63998;52.488;13.428;2023-02-22T01:27:16;101205.13;;;8.08;66.06
75420;BME280;63998;52.488;13.428;2023-02-22T01:29:42;101203.13;;;7.95;67.17
75420;BME280;63998;52.488;13.428;2023-02-22T01:32:10;101197.72;;;7.83;68.41
75420;BME280;63998;52.488;13.428;2023-02-22T01:34:36;101206.28;;;7.79;69.16
75420;BME280;63998;52.488;13.428;2023-02-22T01:37:04;101197.63;;;7.77;69.34
75420;BME280;63998;52.488;13.428;2023-02-22T01:39:33;101200.97;;;7.73;69.87
75420;BME280;63998;52.488;13.428;2023-02-22T01:42:00;101192.28;;;7.71;70.46
75420;BME280;63998;52.488;13.428;2023-02-22T01:46:56;101192.22;;;7.68;70.88
75420;BME280;63998;52.488;13.428;2023-02-22T01:49:28;101193.03;;;7.64;71.26
75420;BME280;63998;52.488;13.428;2023-02-22T01:51:59;101192.13;;;7.62;71.42
75420;BME280;63998;52.488;13.428;2023-02-22T01:54:28;101191.19;;;7.60;71.53
75420;BME280;63998;52.488;13.428;2023-02-22T01:59:45;101185.28;;;7.64;72.55
75420;BME280;63998;52.488;13.428;2023-02-22T02:02:15;101181.88;;;7.68;72.09
75420;BME280;63998;52.488;13.428;2023-02-22T02:04:41;101187.06;;;7.68;71.75
75420;BME280;63998;52.488;13.428;2023-02-22T02:07:08;101184.50;;;7.69;72.33
75420;BME280;63998;52.488;13.428;2023-02-22T02:09:46;101178.91;;;7.90;73.97
75420;BME280;63998;52.488;13.428;2023-02-22T02:12:16;101178.06;;;7.91;73.08
75420;BME280;63998;52.488;13.428;2023-02-22T02:14:43;101177.84;;;7.79;72.22
75420;BME280;63998;52.488;13.428;2023-02-22T02:17:14;101183.78;;;7.75;72.60
75420;BME280;63998;52.488;13.428;2023-02-22T02:22:56;101180.09;;;7.64;72.76
75420;BME280;63998;52.488;13.428;2023-02-22T02:29:39;101178.34;;;7.63;73.14
75420;BME280;63998;52.488;13.428;2023-02-22T02:37:04;101178.09;;;7.50;74.12
75420;BME280;63998;52.488;13.428;2023-02-22T02:39:58;101172.94;;;7.50;73.69
75420;BME280;63998;52.488;13.428;2023-02-22T02:42:39;101171.25;;;7.52;73.57
75420;BME280;63998;52.488;13.428;2023-02-22T02:45:16;101174.66;;;7.51;74.14
75420;BME280;63998;52.488;13.428;2023-02-22T02:47:48;101167.88;;;7.56;74.35
75420;BME280;63998;52.488;13.428;2023-02-22T02:50:25;101172.88;;;7.49;74.23
75420;BME280;63998;52.488;13.428;2023-02-22T02:52:57;101175.72;;;7.61;74.98
75420;BME280;63998;52.488;13.428;2023-02-22T02:55:26;101181.19;;;7.75;75.32
75420;BME280;63998;52.488;13.428;2023-02-22T02:57:52;101173.38;;;7.72;74.20
75420;BME280;63998;52.488;13.428;2023-02-22T03:00:21;101178.47;;;7.69;73.96
75420;BME280;63998;52.488;13.428;2023-02-22T03:05:47;101171.44;;;7.62;74.26
75420;BME280;63998;52.488;13.428;2023-02-22T03:08:31;101172.25;;;7.59;74.75
75420;BME280;63998;52.488;13.428;2023-02-22T03:11:06;101175.88;;;7.69;75.19
75420;BME280;63998;52.488;13.428;2023-02-22T03:19:18;101168.56;;;7.90;75.71
75420;BME280;63998;52.488;13.428;2023-02-22T03:24:21;101168.94;;;7.66;75.01
75420;BME280;63998;52.488;13.428;2023-02-22T03:26:59;101168.13;;;7.69;75.64
75420;BME280;63998;52.488;13.428;2023-02-22T03:29:30;101167.25;;;7.68;76.48
75420;BME280;63998;52.488;13.428;2023-02-22T03:32:02;101156.00;;;7.65;75.70
75420;BME280;63998;52.488;13.428;2023-02-22T03:34:40;101161.72;;;7.50;76.27
75420;BME280;63998;52.488;13.428;2023-02-22T03:37:14;101160.69;;;7.43;76.59
75420;BME280;63998;52.488;13.428;2023-02-22T03:39:45;101158.91;;;7.39;76.86
75420;BME280;63998;52.488;13.428;2023-02-22T03:42:25;101159.03;;;7.45;77.19
75420;BME280;63998;52.488;13.428;2023-02-22T03:44:55;101166.91;;;7.51;77.21
75420;BME280;63998;52.488;13.428;2023-02-22T03:47:31;101168.53;;;7.46;76.71
75420;BME280;63998;52.488;13.428;2023-02-22T03:50:05;101166.69;;;7.42;77.13
75420;BME280;63998;52.488;13.428;2023-02-22T03:52:34;101172.56;;;7.34;77.15
75420;BME280;63998;52.488;13.428;2023-02-22T03:55:02;101173.06;;;7.19;77.66
75420;BME280;63998;52.488;13.428;2023-02-22T03:57:32;101169.63;;;7.18;77.71
75420;BME280;63998;52.488;13.428;2023-02-22T04:00:00;101167.06;;;7.20;77.78
75420;BME280;63998;52.488;13.428;2023-02-22T04:02:30;101176.59;;;7.22;77.88
75420;BME280;63998;52.488;13.428;2023-02-22T04:04:55;101177.47;;;7.23;77.71
75420;BME280;63998;52.488;13.428;2023-02-22T04:07:23;101171.31;;;7.16;78.58
75420;BME280;63998;52.488;13.428;2023-02-22T04:09:49;101169.19;;;7.38;79.39
75420;BME280;63998;52.488;13.428;2023-02-22T04:12:17;101172.75;;;7.41;78.31
75420;BME280;63998;52.488;13.428;2023-02-22T04:14:44;101178.97;;;7.51;78.51
75420;BME280;63998;52.488;13.428;2023-02-22T04:17:10;101175.03;;;7.70;78.14
75420;BME280;63998;52.488;13.428;2023-02-22T04:19:37;101165.81;;;7.82;77.91
75420;BME280;63998;52.488;13.428;2023-02-22T04:22:03;101167.59;;;7.85;77.76
75420;BME280;63998;52.488;13.428;2023-02-22T04:24:30;101175.25;;;7.79;76.64
75420;BME280;63998;52.488;13.428;2023-02-22T04:26:56;101175.09;;;7.73;76.75
75420;BME280;63998;52.488;13.428;2023-02-22T04:29:21;101164.03;;;7.78;76.78
75420;BME280;63998;52.488;13.428;2023-02-22T04:31:46;101178.91;;;7.90;77.48
75420;BME280;63998;52.488;13.428;2023-02-22T04:34:12;101161.75;;;7.95;76.95
75420;BME280;63998;52.488;13.428;2023-02-22T04:36:37;101161.91;;;8.04;77.05
75420;BME280;63998;52.488;13.428;2023-02-22T04:39:06;101162.97;;;8.12;76.73
75420;BME280;63998;52.488;13.428;2023-02-22T04:41:31;101162.28;;;8.22;75.99
75420;BME280;63998;52.488;13.428;2023-02-22T04:44:03;101165.78;;;8.24;75.72
75420;BME280;63998;52.488;13.428;2023-02-22T04:46:31;101168.50;;;8.32;75.77
75420;BME280;63998;52.488;13.428;2023-02-22T04:48:56;101168.53;;;8.34;75.40
75420;BME280;63998;52.488;13.428;2023-02-22T04:51:22;101166.03;;;8.37;75.21
75420;BME280;63998;52.488;13.428;2023-02-22T04:53:48;101166.81;;;8.33;75.00
75420;BME280;63998;52.488;13.428;2023-02-22T04:56:19;101159.09;;;8.36;75.47
75420;BME280;63998;52.488;13.428;2023-02-22T04:58:46;101161.75;;;8.39;75.30
75420;BME280;63998;52.488;13.428;2023-02-22T05:01:14;101171.13;;;8.34;74.66
75420;BME280;63998;52.488;13.428;2023-02-22T05:03:40;101160.25;;;8.06;74.29
75420;BME280;63998;52.488;13.428;2023-02-22T05:06:05;101157.59;;;8.02;74.94
75420;BME280;63998;52.488;13.428;2023-02-22T05:08:33;101160.13;;;8.00;74.86
75420;BME280;63998;52.488;13.428;2023-02-22T05:10:59;101154.97;;;8.00;75.33
75420;BME280;63998;52.488;13.428;2023-02-22T05:13:24;101157.63;;;8.05;75.17
75420;BME280;63998;52.488;13.428;2023-02-22T05:15:50;101148.16;;;8.05;75.33
75420;BME280;63998;52.488;13.428;2023-02-22T05:18:16;101149.03;;;8.06;75.60
75420;BME280;63998;52.488;13.428;2023-02-22T05:20:41;101151.56;;;8.04;75.28
75420;BME280;63998;52.488;13.428;2023-02-22T05:23:06;101156.47;;;7.89;75.36
75420;BME280;63998;52.488;13.428;2023-02-22T05:25:32;101162.50;;;7.88;75.51
75420;BME280;63998;52.488;13.428;2023-02-22T05:28:00;101149.56;;;7.88;75.80
75420;BME280;63998;52.488;13.428;2023-02-22T05:30:31;101156.28;;;7.80;76.51
75420;BME280;63998;52.488;13.428;2023-02-22T05:32:57;101155.66;;;7.91;76.33
75420;BME280;63998;52.488;13.428;2023-02-22T05:35:23;101151.41;;;7.95;75.71
75420;BME280;63998;52.488;13.428;2023-02-22T05:37:51;101147.50;;;8.15;76.51
75420;BME280;63998;52.488;13.428;2023-02-22T05:40:18;101154.56;;;8.25;77.24
75420;BME280;63998;52.488;13.428;2023-02-22T05:42:45;101150.09;;;8.15;75.43
75420;BME280;63998;52.488;13.428;2023-02-22T05:45:15;101153.53;;;8.17;75.27
75420;BME280;63998;52.488;13.428;2023-02-22T05:47:43;101159.81;;;8.30;76.31
75420;BME280;63998;52.488;13.428;2023-02-22T05:50:09;101159.25;;;8.45;76.51
75420;BME280;63998;52.488;13.428;2023-02-22T05:52:38;101161.13;;;8.52;75.56
75420;BME280;63998;52.488;13.428;2023-02-22T05:55:05;101162.06;;;8.57;75.00
75420;BME280;63998;52.488;13.428;2023-02-22T05:57:31;101166.31;;;8.55;74.39
75420;BME280;63998;52.488;13.428;2023-02-22T05:59:56;101173.94;;;8.46;73.27
75420;BME280;63998;52.488;13.428;2023-02-22T06:02:21;101166.13;;;8.43;72.76
75420;BME280;63998;52.488;13.428;2023-02-22T06:04:49;101172.00;;;8.34;72.61
75420;BME280;63998;52.488;13.428;2023-02-22T06:07:15;101169.28;;;8.29;73.25
75420;BME280;63998;52.488;13.428;2023-02-22T06:09:42;101171.28;;;8.43;74.36
75420;BME280;63998;52.488;13.428;2023-02-22T06:12:08;101169.53;;;8.42;74.21
75420;BME280;63998;52.488;13.428;2023-02-22T06:14:36;101168.06;;;8.56;74.91
75420;BME280;63998;52.488;13.428;2023-02-22T06:17:04;101175.06;;;8.60;74.37
75420;BME280;63998;52.488;13.428;2023-02-22T06:19:31;101175.97;;;8.63;74.30
75420;BME280;63998;52.488;13.428;2023-02-22T06:21:57;101176.94;;;8.70;73.72
75420;BME280;63998;52.488;13.428;2023-02-22T06:24:24;101177.06;;;8.76;73.58
75420;BME280;63998;52.488;13.428;2023-02-22T06:26:57;101185.63;;;8.72;72.73
75420;BME280;63998;52.488;13.428;2023-02-22T06:29:24;101190.84;;;8.75;73.17
75420;BME280;63998;52.488;13.428;2023-02-22T06:31:50;101180.66;;;8.86;74.45
75420;BME280;63998;52.488;13.428;2023-02-22T06:34:18;101177.28;;;8.91;74.10
75420;BME280;63998;52.488;13.428;2023-02-22T06:36:47;101187.69;;;8.94;73.56
75420;BME280;63998;52.488;13.428;2023-02-22T06:39:14;101191.25;;;8.99;73.95
75420;BME280;63998;52.488;13.428;2023-02-22T06:41:44;101187.84;;;9.04;73.75
75420;BME280;63998;52.488;13.428;2023-02-22T06:44:11;101195.66;;;9.07;73.92
75420;BME280;63998;52.488;13.428;2023-02-22T06:46:37;101196.75;;;9.21;74.95
75420;BME280;63998;52.488;13.428;2023-02-22T06:49:03;101195.19;;;9.32;75.74
75420;BME280;63998;52.488;13.428;2023-02-22T06:51:29;101192.66;;;9.36;75.05
75420;BME280;63998;52.488;13.428;2023-02-22T06:53:59;101204.88;;;9.45;74.14
75420;BME280;63998;52.488;13.428;2023-02-22T06:56:24;101196.97;;;9.36;73.21
75420;BME280;63998;52.488;13.428;2023-02-22T06:58:54;101198.66;;;9.34;73.00
75420;BME280;63998;52.488;13.428;2023-02-22T07:01:22;101202.09;;;9.33;73.42
75420;BME280;63998;52.488;13.428;2023-02-22T07:03:48;101206.50;;;9.40;73.45
75420;BME280;63998;52.488;13.428;2023-02-22T07:06:16;101204.09;;;9.52;73.75
75420;BME280;63998;52.488;13.428;2023-02-22T07:08:41;101204.97;;;9.51;73.06
75420;BME280;63998;52.488;13.428;2023-02-22T07:11:07;101206.78;;;9.58;73.77
75420;BME280;63998;52.488;13.428;2023-02-22T07:13:34;101204.25;;;9.61;72.97
75420;BME280;63998;52.488;13.428;2023-02-22T07:16:00;101202.59;;;9.69;72.91
75420;BME280;63998;52.488;13.428;2023-02-22T07:18:25;101211.34;;;9.78;72.60
75420;BME280;63998;52.488;13.428;2023-02-22T07:20:50;101204.41;;;9.73;71.68
75420;BME280;63998;52.488;13.428;2023-02-22T07:23:19;101206.03;;;9.68;70.39
75420;BME280;63998;52.488;13.428;2023-02-22T07:25:44;101215.53;;;9.68;70.70
75420;BME280;63998;52.488;13.428;2023-02-22T07:28:14;101214.81;;;9.77;73.49
75420;BME280;63998;52.488;13.428;2023-02-22T07:30:42;101215.66;;;9.77;71.62
75420;BME280;63998;52.488;13.428;2023-02-22T07:33:10;101208.72;;;9.73;71.21
75420;BME280;63998;52.488;13.428;2023-02-22T07:35:44;101208.78;;;9.79;70.85
75420;BME280;63998;52.488;13.428;2023-02-22T07:38:11;101206.13;;;9.75;70.02
75420;BME280;63998;52.488;13.428;2023-02-22T07:40:38;101218.09;;;9.63;70.39
75420;BME280;63998;52.488;13.428;2023-02-22T07:43:04;101213.03;;;9.72;71.35
75420;BME280;63998;52.488;13.428;2023-02-22T07:45:32;101216.50;;;9.75;70.19
75420;BME280;63998;52.488;13.428;2023-02-22T07:48:03;101216.72;;;9.91;72.14
75420;BME280;63998;52.488;13.428;2023-02-22T07:50:30;101211.53;;;9.93;71.06
75420;BME280;63998;52.488;13.428;2023-02-22T07:52:57;101212.53;;;10.01;71.58
75420;BME280;63998;52.488;13.428;2023-02-22T07:55:26;101207.34;;;10.01;70.32
75420;BME280;63998;52.488;13.428;2023-02-22T07:57:56;101208.25;;;10.06;69.92
75420;BME280;63998;52.488;13.428;2023-02-22T08:00:25;101203.16;;;10.14;71.02
75420;BME280;63998;52.488;13.428;2023-02-22T08:02:51;101201.41;;;10.14;69.76
75420;BME280;63998;52.488;13.428;2023-02-22T08:05:21;101211.78;;;10.11;70.84
75420;BME280;63998;52.488;13.428;2023-02-22T08:07:50;101206.63;;;10.17;71.23
75420;BME280;63998;52.488;13.428;2023-02-22T08:10:19;101211.22;;;10.36;73.14
75420;BME280;63998;52.488;13.428;2023-02-22T08:12:45;101214.72;;;10.43;70.52
75420;BME280;63998;52.488;13.428;2023-02-22T08:15:23;101207.84;;;10.47;70.02
75420;BME280;63998;52.488;13.428;2023-02-22T08:17:50;101213.06;;;10.51;68.74
75420;BME280;63998;52.488;13.428;2023-02-22T08:20:16;101203.50;;;10.46;67.20
75420;BME280;63998;52.488;13.428;2023-02-22T08:22:44;101213.03;;;10.47;67.82
75420;BME280;63998;52.488;13.428;2023-02-22T08:25:11;101217.34;;;10.44;66.91
75420;BME280;63998;52.488;13.428;2023-02-22T08:27:42;101210.31;;;10.33;66.57
75420;BME280;63998;52.488;13.428;2023-02-22T08:30:16;101206.59;;;10.11;65.80
75420;BME280;63998;52.488;13.428;2023-02-22T08:32:42;101218.63;;;10.06;66.38
75420;BME280;63998;52.488;13.428;2023-02-22T08:35:07;101209.88;;;9.98;66.46
75420;BME280;63998;52.488;13.428;2023-02-22T08:37:33;101207.19;;;9.90;66.84
75420;BME280;63998;52.488;13.428;2023-02-22T08:39:58;101211.16;;;9.62;66.73
75420;BME280;63998;52.488;13.428;2023-02-22T08:42:26;101211.00;;;9.50;67.46
75420;BME280;63998;52.488;13.428;2023-02-22T08:44:51;101209.94;;;9.36;67.21
75420;BME280;63998;52.488;13.428;2023-02-22T08:47:16;101209.09;;;9.37;68.58
75420;BME280;63998;52.488;13.428;2023-02-22T08:49:42;101209.66;;;9.19;67.42
75420;BME280;63998;52.488;13.428;2023-02-22T08:52:07;101212.22;;;9.15;67.94
75420;BME280;63998;52.488;13.428;2023-02-22T08:54:33;101212.34;;;9.24;69.04
75420;BME280;63998;52.488;13.428;2023-02-22T08:56:58;101214.13;;;9.28;68.38
75420;BME280;63998;52.488;13.428;2023-02-22T08:59:23;101215.16;;;9.41;68.24
75420;BME280;63998;52.488;13.428;2023-02-22T09:01:49;101214.44;;;9.49;67.79
75420;BME280;63998;52.488;13.428;2023-02-22T09:04:14;101210.22;;;9.57;67.91
75420;BME280;63998;52.488;13.428;2023-02-22T09:06:41;101206.91;;;9.67;67.63
75420;BME280;63998;52.488;13.428;2023-02-22T09:09:06;101209.44;;;9.64;66.58
75420;BME280;63998;52.488;13.428;2023-02-22T09:11:32;101213.03;;;9.72;67.06
75420;BME280;63998;52.488;13.428;2023-02-22T09:13:59;101207.78;;;9.69;67.26
75420;BME280;63998;52.488;13.428;2023-02-22T09:16:25;101209.69;;;9.83;66.48
75420;BME280;63998;52.488;13.428;2023-02-22T09:18:50;101205.19;;;9.69;65.48
75420;BME280;63998;52.488;13.428;2023-02-22T09:21:17;101205.06;;;9.59;66.16
75420;BME280;63998;52.488;13.428;2023-02-22T09:23:45;101205.88;;;9.56;66.43
75420;BME280;63998;52.488;13.428;2023-02-22T09:26:13;101210.44;;;9.72;66.68
75420;BME280;63998;52.488;13.428;2023-02-22T09:28:40;101211.56;;;9.94;67.20
75420;BME280;63998;52.488;13.428;2023-02-22T09:31:09;101206.09;;;9.71;65.02
75420;BME280;63998;52.488;13.428;2023-02-22T09:33:35;101214.88;;;9.83;66.03
75420;BME280;63998;52.488;13.428;2023-02-22T09:36:01;101216.81;;;9.99;67.84
75420;BME280;63998;52.488;13.428;2023-02-22T09:38:26;101205.75;;;10.17;67.05
75420;BME280;63998;52.488;13.428;2023-02-22T09:41:19;101206.03;;;10.36;66.32
75420;BME280;63998;52.488;13.428;2023-02-22T09:44:06;101205.38;;;10.59;65.72
75420;BME280;63998;52.488;13.428;2023-02-22T09:46:37;101195.97;;;10.76;65.72
75420;BME280;63998;52.488;13.428;2023-02-22T09:49:15;101193.47;;;10.85;64.52
75420;BME280;63998;52.488;13.428;2023-02-22T09:51:47;101191.66;;;10.78;63.90
75420;BME280;63998;52.488;13.428;2023-02-22T09:54:37;101193.28;;;10.61;63.15
75420;BME280;63998;52.488;13.428;2023-02-22T09:57:11;101181.16;;;10.61;63.88
75420;BME280;63998;52.488;13.428;2023-02-22T09:59:45;101189.63;;;10.43;62.87
75420;BME280;63998;52.488;13.428;2023-02-22T10:02:33;101186.94;;;10.33;63.31
75420;BME280;63998;52.488;13.428;2023-02-22T10:05:07;101192.28;;;10.48;64.20
75420;BME280;63998;52.488;13.428;2023-02-22T10:07:52;101188.97;;;10.63;63.41
75420;BME280;63998;52.488;13.428;2023-02-22T10:10:22;101186.41;;;10.69;63.28
75420;BME280;63998;52.488;13.428;2023-02-22T10:13:00;101180.41;;;10.77;63.19
75420;BME280;63998;52.488;13.428;2023-02-22T10:16:05;101183.09;;;10.85;63.01
75420;BME280;63998;52.488;13.428;2023-02-22T10:18:48;101180.59;;;11.02;64.91
75420;BME280;63998;52.488;13.428;2023-02-22T10:26:43;101179.72;;;11.01;61.98
75420;BME280;63998;52.488;13.428;2023-02-22T10:32:02;101178.03;;;11.06;61.82
75420;BME280;63998;52.488;13.428;2023-02-22T10:34:37;101174.63;;;11.16;63.00
75420;BME280;63998;52.488;13.428;2023-02-22T10:39:47;101173.75;;;11.16;63.19
75420;BME280;63998;52.488;13.428;2023-02-22T10:42:14;101171.22;;;11.27;62.87
75420;BME280;63998;52.488;13.428;2023-02-22T10:44:42;101172.16;;;11.36;62.51
75420;BME280;63998;52.488;13.428;2023-02-22T10:47:10;101166.09;;;11.36;60.93
75420;BME280;63998;52.488;13.428;2023-02-22T10:49:46;101166.13;;;11.42;61.80
75420;BME280;63998;52.488;13.428;2023-02-22T10:52:23;101172.22;;;11.50;61.87
75420;BME280;63998;52.488;13.428;2023-02-22T10:54:50;101169.69;;;11.65;61.20
75420;BME280;63998;52.488;13.428;2023-02-22T10:57:21;101163.69;;;11.74;62.08
75420;BME280;63998;52.488;13.428;2023-02-22T10:59:48;101167.13;;;11.71;60.90
75420;BME280;63998;52.488;13.428;2023-02-22T11:04:48;101169.59;;;11.44;59.06
75420;BME280;63998;52.488;13.428;2023-02-22T11:09:58;101164.09;;;10.95;60.14
75420;BME280;63998;52.488;13.428;2023-02-22T11:12:32;101163.91;;;10.71;59.49
75420;BME280;63998;52.488;13.428;2023-02-22T11:17:50;101160.44;;;10.69;61.90
75420;BME280;63998;52.488;13.428;2023-02-22T11:20:24;101163.19;;;10.87;62.60
75420;BME280;63998;52.488;13.428;2023-02-22T11:22:52;101165.78;;;10.90;62.19
75420;BME280;63998;52.488;13.428;2023-02-22T11:25:20;101164.03;;;10.89;60.77
75420;BME280;63998;52.488;13.428;2023-02-22T11:27:46;101153.44;;;10.65;60.46
75420;BME280;63998;52.488;13.428;2023-02-22T11:30:28;101152.47;;;10.52;61.19
75420;BME280;63998;52.488;13.428;2023-02-22T11:33:17;101150.84;;;10.62;61.71
75420;BME280;63998;52.488;13.428;2023-02-22T11:36:04;101157.94;;;10.83;63.62
75420;BME280;63998;52.488;13.428;2023-02-22T11:38:38;101153.72;;;10.98;62.18
75420;BME280;63998;52.488;13.428;2023-02-22T11:43:50;101138.78;;;10.68;60.64
75420;BME280;63998;52.488;13.428;2023-02-22T11:46:23;101131.84;;;10.70;60.57
75420;BME280;63998;52.488;13.428;2023-02-22T11:49:12;101134.50;;;10.75;61.78
75420;BME280;63998;52.488;13.428;2023-02-22T12:11:16;101119.00;;;10.86;59.71
75420;BME280;63998;52.488;13.428;2023-02-22T12:19:30;101112.31;;;11.32;58.88
75420;BME280;63998;52.488;13.428;2023-02-22T12:22:00;101109.75;;;11.35;59.54
75420;BME280;63998;52.488;13.428;2023-02-22T12:24:35;101113.19;;;11.31;59.65
75420;BME280;63998;52.488;13.428;2023-02-22T12:27:25;101103.66;;;11.39;58.78
75420;BME280;63998;52.488;13.428;2023-02-22T12:29:59;101107.22;;;11.56;60.24
75420;BME280;63998;52.488;13.428;2023-02-22T12:32:36;101107.25;;;11.59;58.48
75420;BME280;63998;52.488;13.428;2023-02-22T12:35:19;101101.16;;;11.63;59.34
75420;BME280;63998;52.488;13.428;2023-02-22T12:38:14;101105.50;;;11.58;57.77
75420;BME280;63998;52.488;13.428;2023-02-22T12:43:32;101107.25;;;11.65;58.50
75420;BME280;63998;52.488;13.428;2023-02-22T12:48:51;101104.66;;;11.61;56.45
75420;BME280;63998;52.488;13.428;2023-02-22T12:51:40;101106.38;;;11.66;58.18
75420;BME280;63998;52.488;13.428;2023-02-22T12:56:47;101104.53;;;11.33;56.85
75420;BME280;63998;52.488;13.428;2023-02-22T13:02:07;101101.94;;;11.41;57.92
75420;BME280;63998;52.488;13.428;2023-02-22T13:04:36;101101.09;;;11.42;57.86
75420;BME280;63998;52.488;13.428;2023-02-22T13:07:14;101097.66;;;11.52;57.15
75420;BME280;63998;52.488;13.428;2023-02-22T13:15:42;101091.69;;;11.73;56.86
75420;BME280;63998;52.488;13.428;2023-02-22T13:18:38;101089.09;;;11.74;58.44
75420;BME280;63998;52.488;13.428;2023-02-22T13:26:27;101081.34;;;12.14;58.11
75420;BME280;63998;52.488;13.428;2023-02-22T13:29:08;101081.38;;;12.20;57.65
75420;BME280;63998;52.488;13.428;2023-02-22T13:40:27;101063.97;;;11.92;55.32
75420;BME280;63998;52.488;13.428;2023-02-22T13:43:16;101070.94;;;11.96;57.30
75420;BME280;63998;52.488;13.428;2023-02-22T13:46:07;101072.66;;;11.91;57.68
75420;BME280;63998;52.488;13.428;2023-02-22T13:48:51;101062.25;;;11.94;57.92
75420;BME280;63998;52.488;13.428;2023-02-22T13:56:56;101064.88;;;12.27;57.29
75420;BME280;63998;52.488;13.428;2023-02-22T13:59:34;101076.16;;;12.17;55.95
75420;BME280;63998;52.488;13.428;2023-02-22T14:02:02;101069.19;;;12.13;55.88
75420;BME280;63998;52.488;13.428;2023-02-22T14:06:57;101072.69;;;12.32;57.78
75420;BME280;63998;52.488;13.428;2023-02-22T14:09:49;101077.91;;;12.30;57.76
75420;BME280;63998;52.488;13.428;2023-02-22T14:20:35;101060.53;;;12.17;57.06
75420;BME280;63998;52.488;13.428;2023-02-22T14:25:53;101062.28;;;12.21;56.57
75420;BME280;63998;52.488;13.428;2023-02-22T14:28:38;101054.47;;;12.21;56.65
75420;BME280;63998;52.488;13.428;2023-02-22T14:31:16;101050.09;;;12.14;55.84
75420;BME280;63998;52.488;13.428;2023-02-22T14:34:04;101049.22;;;12.03;55.91
75420;BME280;63998;52.488;13.428;2023-02-22T14:41:47;101055.31;;;11.86;58.56
75420;BME280;63998;52.488;13.428;2023-02-22T14:44:23;101043.13;;;11.79;56.77
75420;BME280;63998;52.488;13.428;2023-02-22T14:46:50;101043.09;;;11.70;57.04
75420;BME280;63998;52.488;13.428;2023-02-22T14:49:20;101046.56;;;11.69;56.66
75420;BME280;63998;52.488;13.428;2023-02-22T14:51:55;101039.59;;;11.68;58.23
75420;BME280;63998;52.488;13.428;2023-02-22T14:54:57;101039.66;;;11.77;59.19
75420;BME280;63998;52.488;13.428;2023-02-22T14:57:22;101043.16;;;11.82;58.26
75420;BME280;63998;52.488;13.428;2023-02-22T14:59:51;101041.38;;;11.75;57.80
75420;BME280;63998;52.488;13.428;2023-02-22T15:02:26;101029.16;;;11.62;56.36
75420;BME280;63998;52.488;13.428;2023-02-22T15:04:54;101030.06;;;11.67;59.36
75420;BME280;63998;52.488;13.428;2023-02-22T15:10:14;101030.91;;;11.63;58.10
75420;BME280;63998;52.488;13.428;2023-02-22T15:12:50;101036.97;;;11.56;58.50
75420;BME280;63998;52.488;13.428;2023-02-22T15:15:17;101035.25;;;11.60;59.30